createdAt,value
2017-11-13T00:01:03.254Z,2.80
2017-11-13T00:03:30.751Z,2.43
2017-11-13T00:05:58.225Z,2.50
2017-11-13T00:08:25.715Z,2.30
2017-11-13T00:10:53.187Z,2.50
2017-11-13T00:13:20.667Z,2.40
2017-11-13T00:15:48.919Z,2.17
2017-11-13T00:18:16.478Z,2.43
2017-11-13T00:20:43.946Z,2.80
2017-11-13T00:23:12.211Z,2.80
2017-11-13T00:25:39.687Z,2.70
2017-11-13T00:28:07.930Z,2.50
2017-11-13T00:30:35.416Z,3.27
2017-11-13T00:33:02.942Z,2.60
2017-11-13T00:35:30.410Z,3.00
2017-11-13T00:37:57.896Z,2.60
2017-11-13T00:40:26.126Z,2.70
2017-11-13T00:42:53.614Z,2.70
2017-11-13T00:45:21.108Z,3.00
2017-11-13T00:47:48.578Z,2.73
2017-11-13T00:50:16.055Z,2.62
2017-11-13T00:52:43.517Z,3.00
2017-11-13T00:55:11.028Z,2.73
2017-11-13T00:57:39.895Z,3.00
2017-11-13T01:00:07.376Z,3.10
2017-11-13T01:02:35.607Z,3.03
2017-11-13T01:05:03.095Z,3.07
2017-11-13T01:07:31.330Z,3.33
2017-11-13T01:09:58.830Z,3.60
2017-11-13T01:12:27.062Z,2.90
2017-11-13T01:14:54.547Z,3.20
2017-11-13T01:17:22.029Z,3.27
2017-11-13T01:19:50.269Z,3.30
2017-11-13T01:22:17.761Z,2.80
2017-11-13T01:24:46.013Z,2.70
2017-11-13T01:27:14.257Z,3.20
2017-11-13T01:29:41.759Z,2.93
2017-11-13T01:32:10.007Z,3.00
2017-11-13T01:34:37.502Z,3.10
2017-11-13T01:37:05.729Z,3.27
2017-11-13T01:39:33.214Z,3.00
2017-11-13T01:42:00.704Z,3.03
2017-11-13T01:44:28.958Z,3.00
2017-11-13T01:46:57.237Z,2.83
2017-11-13T01:49:25.494Z,2.63
2017-11-13T01:51:52.982Z,2.97
2017-11-13T01:54:21.221Z,2.60
2017-11-13T01:56:48.715Z,2.93
2017-11-13T01:59:17.867Z,2.80
2017-11-13T02:01:45.353Z,3.00
2017-11-13T02:04:18.557Z,3.30
2017-11-13T02:06:46.851Z,3.45
2017-11-13T02:09:15.087Z,3.10
2017-11-13T02:11:42.576Z,3.07
2017-11-13T02:14:10.815Z,2.67
2017-11-13T02:16:38.312Z,2.80
2017-11-13T02:19:06.555Z,3.30
2017-11-13T02:21:34.034Z,3.80
2017-11-13T02:24:02.278Z,3.07
2017-11-13T02:26:29.745Z,3.10
2017-11-13T02:28:57.218Z,3.12
2017-11-13T02:31:24.715Z,3.37
2017-11-13T02:33:52.184Z,3.47
2017-11-13T02:36:19.646Z,3.43
2017-11-13T02:38:47.132Z,3.63
2017-11-13T02:41:14.609Z,3.63
2017-11-13T02:43:42.864Z,3.50
2017-11-13T02:46:10.350Z,3.73
2017-11-13T02:48:38.593Z,3.50
2017-11-13T02:51:06.073Z,3.37
2017-11-13T02:53:34.330Z,3.83
2017-11-13T02:56:01.809Z,3.73
2017-11-13T02:58:30.063Z,3.73
2017-11-13T03:00:57.527Z,3.77
2017-11-13T03:03:25.030Z,3.57
2017-11-13T03:05:52.511Z,3.37
2017-11-13T03:08:19.989Z,3.50
2017-11-13T03:10:47.471Z,3.33
2017-11-13T03:13:15.728Z,3.53
2017-11-13T03:15:43.193Z,3.30
2017-11-13T03:18:10.675Z,3.57
2017-11-13T03:20:38.920Z,4.33
2017-11-13T03:23:06.429Z,3.67
2017-11-13T03:25:33.898Z,4.57
2017-11-13T03:28:01.369Z,4.00
2017-11-13T03:30:28.851Z,3.43
2017-11-13T03:32:57.099Z,3.83
2017-11-13T03:35:24.669Z,3.63
2017-11-13T03:37:52.143Z,3.27
2017-11-13T03:40:19.629Z,3.10
2017-11-13T03:42:47.871Z,2.97
2017-11-13T03:45:16.270Z,3.43
2017-11-13T03:47:43.838Z,2.90
2017-11-13T03:50:12.097Z,3.10
2017-11-13T03:52:40.330Z,3.60
2017-11-13T03:55:07.807Z,2.93
2017-11-13T03:57:35.286Z,2.65
2017-11-13T04:00:02.770Z,3.67
2017-11-13T04:02:31.017Z,3.23
2017-11-13T04:05:00.006Z,2.67
2017-11-13T04:07:27.471Z,3.40
2017-11-13T04:09:55.042Z,3.30
2017-11-13T04:12:22.529Z,3.60
2017-11-13T04:14:50.002Z,3.93
2017-11-13T04:17:17.474Z,3.20
2017-11-13T04:19:44.966Z,3.93
2017-11-13T04:22:13.210Z,3.20
2017-11-13T04:24:40.702Z,3.90
2017-11-13T04:27:08.179Z,3.47
2017-11-13T04:29:36.425Z,4.10
2017-11-13T04:32:03.903Z,3.77
2017-11-13T04:34:32.129Z,3.90
2017-11-13T04:36:59.599Z,3.53
2017-11-13T04:39:27.078Z,3.50
2017-11-13T04:41:54.557Z,3.77
2017-11-13T04:44:22.797Z,3.37
2017-11-13T04:46:50.276Z,3.70
2017-11-13T04:49:17.751Z,3.70
2017-11-13T04:51:46.007Z,3.50
2017-11-13T04:54:14.254Z,3.30
2017-11-13T04:56:41.745Z,2.80
2017-11-13T04:59:09.219Z,3.13
2017-11-13T05:01:37.475Z,2.70
2017-11-13T05:04:04.946Z,2.70
2017-11-13T05:06:33.175Z,2.63
2017-11-13T05:09:00.650Z,2.40
2017-11-13T05:11:28.122Z,2.50
2017-11-13T05:13:55.598Z,2.90
2017-11-13T05:16:23.836Z,2.60
2017-11-13T05:18:51.325Z,2.60
2017-11-13T05:21:19.562Z,2.77
2017-11-13T05:23:47.070Z,2.80
2017-11-13T05:26:15.307Z,3.10
2017-11-13T05:28:42.825Z,3.43
2017-11-13T05:31:10.307Z,3.87
2017-11-13T05:33:37.814Z,3.93
2017-11-13T05:36:06.058Z,4.55
2017-11-13T05:38:33.540Z,4.40
2017-11-13T05:41:01.777Z,3.67
2017-11-13T05:43:29.290Z,4.07
2017-11-13T05:45:58.248Z,3.83
2017-11-13T05:48:25.737Z,4.07
2017-11-13T05:50:54.990Z,3.70
2017-11-13T05:53:22.458Z,4.37
2017-11-13T05:55:49.933Z,4.27
2017-11-13T05:58:20.949Z,4.00
2017-11-13T06:00:48.413Z,4.70
2017-11-13T06:03:15.915Z,5.10
2017-11-13T06:05:43.398Z,4.10
2017-11-13T06:08:11.467Z,4.62
2017-11-13T06:10:38.976Z,4.77
2017-11-13T06:13:06.452Z,5.87
2017-11-13T06:15:34.722Z,4.70
2017-11-13T06:18:02.947Z,4.77
2017-11-13T06:20:30.443Z,5.30
2017-11-13T06:22:57.915Z,4.50
2017-11-13T06:25:26.183Z,5.10
2017-11-13T06:27:54.422Z,5.87
2017-11-13T06:30:21.911Z,6.12
2017-11-13T06:32:49.378Z,6.30
2017-11-13T06:35:18.197Z,6.00
2017-11-13T06:37:45.679Z,6.97
2017-11-13T06:40:13.162Z,6.67
2017-11-13T06:42:40.647Z,5.73
2017-11-13T06:45:08.910Z,7.10
2017-11-13T06:47:36.386Z,6.70
2017-11-13T06:50:04.638Z,6.33
2017-11-13T06:52:32.122Z,7.22
2017-11-13T06:55:00.361Z,8.30
2017-11-13T06:57:27.847Z,7.60
2017-11-13T06:59:56.066Z,7.10
2017-11-13T07:02:23.550Z,8.27
2017-11-13T07:04:51.078Z,6.53
2017-11-13T07:07:18.569Z,7.27
2017-11-13T07:09:47.108Z,7.40
2017-11-13T07:12:14.581Z,6.30
2017-11-13T07:14:42.049Z,7.40
2017-11-13T07:25:49.147Z,7.83
2017-11-13T07:31:10.537Z,7.90
2017-11-13T07:33:38.597Z,8.87
2017-11-13T07:36:06.060Z,7.47
2017-11-13T07:38:33.558Z,7.90
2017-11-13T07:41:14.651Z,6.60
2017-11-13T07:43:42.151Z,7.80
2017-11-13T07:46:22.071Z,9.10
2017-11-13T07:48:49.571Z,6.78
2017-11-13T07:51:17.083Z,7.43
2017-11-13T07:53:44.574Z,8.13
2017-11-13T07:56:12.061Z,8.60
2017-11-13T07:58:39.547Z,7.40
2017-11-13T08:01:08.009Z,6.10
2017-11-13T08:03:36.292Z,5.80
2017-11-13T08:06:04.530Z,5.00
2017-11-13T08:08:32.011Z,4.17
2017-11-13T08:10:59.489Z,4.10
2017-11-13T08:13:28.007Z,4.57
2017-11-13T08:15:55.477Z,4.97
2017-11-13T08:18:22.961Z,5.80
2017-11-13T08:20:50.456Z,8.50
2017-11-13T08:23:17.955Z,4.97
2017-11-13T08:28:46.337Z,5.53
2017-11-13T08:31:13.817Z,5.12
2017-11-13T08:33:41.312Z,6.60
2017-11-13T08:36:09.563Z,5.63
2017-11-13T08:38:37.057Z,5.10
2017-11-13T08:41:04.518Z,6.95
2017-11-13T08:43:31.997Z,6.33
2017-11-13T08:45:59.493Z,6.37
2017-11-13T08:48:26.961Z,7.37
2017-11-13T08:50:54.537Z,9.20
2017-11-13T08:53:22.030Z,10.88
2017-11-13T08:55:49.518Z,11.57
2017-11-13T08:58:16.993Z,8.47
2017-11-13T09:00:45.258Z,7.93
2017-11-13T09:03:12.725Z,7.20
2017-11-13T09:05:40.206Z,9.80
2017-11-13T09:08:08.474Z,9.38
2017-11-13T09:10:36.735Z,7.80
2017-11-13T09:13:04.203Z,9.43
2017-11-13T09:15:32.493Z,8.27
2017-11-13T09:18:00.723Z,9.57
2017-11-13T09:20:28.209Z,8.57
2017-11-13T09:22:56.456Z,7.87
2017-11-13T09:25:23.929Z,7.68
2017-11-13T09:27:51.403Z,8.90
2017-11-13T09:30:19.645Z,9.40
2017-11-13T09:32:47.130Z,8.00
2017-11-13T09:35:14.648Z,10.80
2017-11-13T09:37:42.146Z,9.00
2017-11-13T09:40:09.626Z,9.13
2017-11-13T09:42:37.106Z,8.50
2017-11-13T09:45:04.601Z,9.90
2017-11-13T09:47:32.098Z,10.23
2017-11-13T09:50:00.342Z,11.93
2017-11-13T09:52:27.819Z,8.37
2017-11-13T09:54:56.098Z,10.77
2017-11-13T09:57:24.467Z,9.70
2017-11-13T09:59:52.744Z,10.33
2017-11-13T10:02:20.235Z,12.10
2017-11-13T10:04:48.408Z,10.20
2017-11-13T10:07:15.910Z,8.80
2017-11-13T10:09:43.378Z,8.30
2017-11-13T10:12:10.877Z,9.43
2017-11-13T10:17:32.898Z,8.80
2017-11-13T10:20:01.134Z,8.40
2017-11-13T10:22:28.620Z,7.00
2017-11-13T10:24:56.111Z,9.30
2017-11-13T10:27:24.358Z,9.40
2017-11-13T10:29:51.831Z,7.03
2017-11-13T10:32:20.089Z,8.40
2017-11-13T10:34:47.556Z,7.33
2017-11-13T10:37:15.818Z,8.30
2017-11-13T10:39:43.284Z,8.90
2017-11-13T10:42:11.540Z,9.63
2017-11-13T10:44:39.023Z,10.57
2017-11-13T10:47:06.863Z,8.77
2017-11-13T10:49:34.363Z,8.63
2017-11-13T10:52:01.933Z,12.37
2017-11-13T10:57:22.890Z,10.77
2017-11-13T10:59:50.367Z,9.47
2017-11-13T11:02:18.747Z,11.30
2017-11-13T11:04:46.239Z,9.47
2017-11-13T11:07:14.478Z,10.23
2017-11-13T11:09:41.975Z,8.03
2017-11-13T11:12:10.210Z,8.50
2017-11-13T11:14:37.712Z,8.03
2017-11-13T11:17:11.726Z,8.30
2017-11-13T11:33:14.879Z,8.43
2017-11-13T11:35:56.218Z,7.40
2017-11-13T11:38:23.714Z,7.90
2017-11-13T11:40:51.981Z,9.60
2017-11-13T11:46:14.858Z,7.10
2017-11-13T11:48:46.337Z,9.87
2017-11-13T12:07:39.128Z,9.30
2017-11-13T12:10:06.643Z,8.80
2017-11-13T12:12:34.890Z,8.37
2017-11-13T12:15:02.374Z,8.43
2017-11-13T12:17:30.613Z,7.80
2017-11-13T12:19:58.108Z,7.20
2017-11-13T12:22:25.586Z,9.18
2017-11-13T12:24:53.841Z,7.50
2017-11-13T12:27:21.307Z,9.30
2017-11-13T12:29:49.554Z,7.53
2017-11-13T12:32:17.126Z,7.77
2017-11-13T12:34:44.637Z,8.00
2017-11-13T12:37:12.130Z,8.30
2017-11-13T12:39:39.634Z,9.57
2017-11-13T12:42:07.115Z,7.37
2017-11-13T12:44:34.588Z,7.97
2017-11-13T12:47:02.076Z,7.33
2017-11-13T12:49:29.542Z,7.50
2017-11-13T12:51:57.807Z,9.50
2017-11-13T12:54:26.682Z,6.93
2017-11-13T12:56:54.170Z,6.97
2017-11-13T12:59:22.417Z,6.17
2017-11-13T13:01:49.916Z,7.70
2017-11-13T13:04:18.174Z,6.70
2017-11-13T13:06:45.668Z,5.40
2017-11-13T13:09:13.142Z,4.90
2017-11-13T13:11:40.634Z,7.90
2017-11-13T13:14:08.118Z,9.77
2017-11-13T13:16:36.402Z,7.10
2017-11-13T13:19:23.216Z,6.47
2017-11-13T13:21:50.738Z,7.10
2017-11-13T13:24:19.127Z,6.87
2017-11-13T13:26:46.646Z,5.03
2017-11-13T13:29:14.892Z,4.70
2017-11-13T13:31:42.405Z,3.93
2017-11-13T13:34:09.874Z,3.20
2017-11-13T13:36:37.374Z,4.00
2017-11-13T13:39:04.862Z,3.97
2017-11-13T13:41:32.346Z,3.80
2017-11-13T13:43:59.833Z,4.60
2017-11-13T13:46:29.010Z,4.53
2017-11-13T13:48:56.613Z,4.60
2017-11-13T13:51:24.139Z,5.43
2017-11-13T13:53:52.395Z,6.00
2017-11-13T13:56:21.365Z,4.93
2017-11-13T13:58:48.854Z,5.43
2017-11-13T14:01:16.332Z,5.20
2017-11-13T14:03:44.587Z,6.40
2017-11-13T14:06:12.057Z,5.40
2017-11-13T14:08:40.316Z,5.90
2017-11-13T14:11:07.781Z,6.40
2017-11-13T14:13:36.036Z,6.10
2017-11-13T14:16:03.505Z,6.10
2017-11-13T14:18:32.505Z,7.50
2017-11-13T14:20:59.977Z,7.90
2017-11-13T14:23:29.025Z,7.03
2017-11-13T14:25:56.546Z,6.17
2017-11-13T14:28:24.050Z,7.50
2017-11-13T14:30:51.527Z,7.27
2017-11-13T14:33:19.022Z,8.05
2017-11-13T14:35:46.966Z,6.97
2017-11-13T14:38:15.218Z,6.67
2017-11-13T14:40:42.735Z,7.50
2017-11-13T14:43:10.223Z,6.72
2017-11-13T14:45:38.280Z,7.37
2017-11-13T14:48:05.783Z,8.60
2017-11-13T14:50:34.031Z,8.63
2017-11-13T14:53:01.522Z,7.67
2017-11-13T14:55:29.785Z,6.80
2017-11-13T14:57:57.308Z,11.07
2017-11-13T15:00:24.803Z,6.00
2017-11-13T15:02:52.285Z,4.60
2017-11-13T15:05:20.546Z,4.00
2017-11-13T15:07:48.002Z,4.00
2017-11-13T15:10:16.274Z,5.77
2017-11-13T15:12:43.731Z,4.57
2017-11-13T15:15:11.221Z,4.97
2017-11-13T15:17:39.440Z,7.60
2017-11-13T15:20:06.931Z,7.00
2017-11-13T15:22:35.181Z,5.50
2017-11-13T15:25:03.445Z,6.77
2017-11-13T15:27:30.918Z,5.45
2017-11-13T15:29:58.402Z,7.00
2017-11-13T15:32:26.638Z,9.83
2017-11-13T15:34:54.131Z,8.20
2017-11-13T15:37:22.393Z,10.00
2017-11-13T15:39:50.630Z,6.17
2017-11-13T15:42:18.106Z,9.00
2017-11-13T15:44:45.613Z,8.17
2017-11-13T15:47:13.842Z,6.87
2017-11-13T15:49:41.354Z,6.68
2017-11-13T15:52:08.826Z,6.60
2017-11-13T15:54:36.310Z,6.33
2017-11-13T15:57:03.797Z,7.10
2017-11-13T15:59:31.266Z,8.83
2017-11-13T16:01:59.517Z,7.97
2017-11-13T16:04:26.990Z,6.63
2017-11-13T16:06:54.466Z,7.60
2017-11-13T16:09:22.713Z,6.53
2017-11-13T16:11:50.199Z,7.70
2017-11-13T16:14:18.454Z,6.60
2017-11-13T16:16:45.954Z,9.23
2017-11-13T16:19:13.434Z,7.23
2017-11-13T16:21:42.573Z,8.90
2017-11-13T16:24:10.828Z,9.70
2017-11-13T16:26:38.314Z,10.43
2017-11-13T16:29:06.570Z,9.27
2017-11-13T16:31:34.075Z,11.07
2017-11-13T16:34:01.556Z,11.45
2017-11-13T16:36:29.043Z,10.03
2017-11-13T16:38:56.519Z,10.50
2017-11-13T16:41:24.802Z,10.07
2017-11-13T16:43:53.061Z,12.27
2017-11-13T16:46:22.341Z,11.80
2017-11-13T16:48:49.841Z,9.40
2017-11-13T16:51:18.091Z,9.80
2017-11-13T16:53:45.584Z,7.70
2017-11-13T16:56:13.063Z,13.38
2017-11-13T16:58:40.550Z,19.00
2017-11-13T17:01:08.022Z,23.60
2017-11-13T17:03:35.513Z,29.37
2017-11-13T17:06:03.037Z,41.67
2017-11-13T17:08:30.541Z,36.10
2017-11-13T17:10:58.025Z,19.43
2017-11-13T17:13:25.502Z,19.90
2017-11-13T17:15:52.970Z,20.80
2017-11-13T17:18:20.486Z,9.10
2017-11-13T17:20:47.980Z,10.70
2017-11-13T17:23:15.478Z,6.13
2017-11-13T17:25:42.947Z,8.50
2017-11-13T17:28:10.442Z,6.70
2017-11-13T17:30:37.925Z,7.87
2017-11-13T17:33:07.207Z,15.10
2017-11-13T17:35:36.214Z,17.30
2017-11-13T17:38:04.491Z,18.00
2017-11-13T17:40:31.978Z,17.70
2017-11-13T17:42:59.473Z,15.40
2017-11-13T17:45:27.000Z,14.37
2017-11-13T17:47:54.523Z,14.67
2017-11-13T17:50:22.780Z,15.20
2017-11-13T17:52:50.254Z,14.87
2017-11-13T17:55:17.743Z,13.70
2017-11-13T17:57:45.220Z,12.47
2017-11-13T18:00:12.723Z,17.60
2017-11-13T18:02:40.218Z,24.35
2017-11-13T18:05:07.736Z,21.23
2017-11-13T18:07:35.230Z,24.23
2017-11-13T18:10:02.721Z,28.67
2017-11-13T18:12:30.222Z,26.20
2017-11-13T18:14:57.729Z,22.87
2017-11-13T18:17:25.218Z,19.37
2017-11-13T18:19:52.716Z,21.23
2017-11-13T18:22:20.983Z,22.10
2017-11-13T18:24:49.258Z,17.70
2017-11-13T18:27:17.508Z,13.10
2017-11-13T18:29:44.999Z,12.37
2017-11-13T18:32:13.252Z,12.70
2017-11-13T18:34:40.830Z,13.40
2017-11-13T18:37:09.100Z,14.90
2017-11-13T18:39:37.348Z,19.93
2017-11-13T18:42:04.858Z,18.40
2017-11-13T18:44:32.336Z,20.10
2017-11-13T18:46:59.844Z,18.57
2017-11-13T18:49:27.326Z,17.07
2017-11-13T18:51:55.597Z,17.43
2017-11-13T18:54:23.842Z,23.20
2017-11-13T18:56:51.462Z,22.00
2017-11-13T18:59:18.959Z,20.00
2017-11-13T19:01:46.464Z,23.30
2017-11-13T19:04:13.942Z,31.67
2017-11-13T19:06:41.442Z,27.03
2017-11-13T19:09:08.932Z,22.60
2017-11-13T19:11:36.441Z,16.07
2017-11-13T19:14:03.953Z,14.87
2017-11-13T19:16:31.487Z,12.50
2017-11-13T19:18:59.741Z,12.60
2017-11-13T19:21:27.233Z,9.07
2017-11-13T19:23:55.502Z,11.50
2017-11-13T19:26:23.749Z,11.73
2017-11-13T19:28:51.282Z,12.77
2017-11-13T19:31:18.787Z,13.00
2017-11-13T19:33:46.333Z,15.93
2017-11-13T19:36:13.815Z,20.63
2017-11-13T19:38:42.065Z,19.80
2017-11-13T19:41:09.557Z,17.00
2017-11-13T19:43:37.839Z,18.20
2017-11-13T19:46:05.336Z,19.43
2017-11-13T19:48:32.857Z,20.00
2017-11-13T19:51:00.340Z,18.83
2017-11-13T19:53:27.925Z,15.30
2017-11-13T19:55:55.420Z,12.47
2017-11-13T19:58:23.682Z,13.20
2017-11-13T20:00:51.155Z,13.37
2017-11-13T20:03:19.423Z,15.85
2017-11-13T20:08:40.892Z,16.07
2017-11-13T20:11:08.359Z,13.23
2017-11-13T20:13:35.881Z,12.17
2017-11-13T20:16:04.167Z,11.30
2017-11-13T20:18:31.718Z,12.13
2017-11-13T20:20:59.966Z,13.17
2017-11-13T20:23:27.472Z,21.20
2017-11-13T20:25:54.948Z,21.90
2017-11-13T20:28:22.430Z,18.73
2017-11-13T20:30:49.926Z,19.63
2017-11-13T20:33:18.190Z,14.47
2017-11-13T20:35:46.470Z,13.87
2017-11-13T20:38:15.629Z,13.53
2017-11-13T20:40:43.121Z,18.23
2017-11-13T20:43:11.375Z,13.60
2017-11-13T20:45:38.874Z,15.40
2017-11-13T20:48:06.359Z,17.13
2017-11-13T20:50:33.857Z,14.73
2017-11-13T20:53:01.337Z,15.30
2017-11-13T20:55:30.542Z,17.63
2017-11-13T20:57:58.039Z,16.07
2017-11-13T21:00:25.526Z,18.10
2017-11-13T21:02:54.506Z,18.97
2017-11-13T21:05:23.146Z,18.53
2017-11-13T21:07:50.636Z,18.62
2017-11-13T21:10:18.142Z,20.27
2017-11-13T21:12:46.416Z,19.40
2017-11-13T21:15:14.730Z,19.00
2017-11-13T21:17:42.203Z,17.53
2017-11-13T21:20:09.704Z,19.17
2017-11-13T21:22:37.230Z,21.10
2017-11-13T21:25:04.714Z,17.43
2017-11-13T21:27:32.987Z,18.57
2017-11-13T21:30:00.463Z,17.37
2017-11-13T21:32:28.721Z,18.00
2017-11-13T21:34:56.213Z,15.73
2017-11-13T21:37:23.718Z,19.00
2017-11-13T21:39:51.197Z,22.10
2017-11-13T21:42:19.473Z,18.30
2017-11-13T21:44:46.964Z,19.53
2017-11-13T21:47:14.457Z,18.17
2017-11-13T21:49:41.929Z,17.23
2017-11-13T21:52:09.431Z,17.40
2017-11-13T21:54:37.665Z,16.90
2017-11-13T21:57:05.250Z,20.20
2017-11-13T21:59:32.778Z,17.27
2017-11-13T22:02:00.275Z,18.80
2017-11-13T22:04:28.514Z,19.37
2017-11-13T22:06:56.035Z,21.20
2017-11-13T22:09:23.570Z,18.60
2017-11-13T22:11:51.807Z,21.43
2017-11-13T22:14:19.321Z,21.37
2017-11-13T22:16:46.790Z,18.80
2017-11-13T22:19:14.281Z,17.60
2017-11-13T22:21:41.773Z,18.90
2017-11-13T22:24:10.035Z,17.10
2017-11-13T22:26:37.524Z,15.20
2017-11-13T22:29:05.770Z,14.50
2017-11-13T22:31:33.254Z,15.83
2017-11-13T22:34:01.510Z,15.90
2017-11-13T22:36:28.995Z,14.63
2017-11-13T22:38:56.491Z,14.43
2017-11-13T22:41:23.963Z,14.43
2017-11-13T22:43:51.453Z,15.30
2017-11-13T22:46:19.687Z,16.37
2017-11-13T22:48:47.282Z,13.27
2017-11-13T22:51:16.133Z,14.70
2017-11-13T22:53:43.642Z,15.70
2017-11-13T22:56:11.890Z,18.50
2017-11-13T22:58:39.502Z,17.50
2017-11-13T23:01:06.995Z,17.17
2017-11-13T23:03:34.474Z,16.10
2017-11-13T23:06:01.962Z,17.57
2017-11-13T23:08:29.445Z,15.60
2017-11-13T23:10:56.950Z,15.53
2017-11-13T23:13:24.439Z,16.10
2017-11-13T23:15:51.942Z,16.67
2017-11-13T23:18:19.420Z,15.77
2017-11-13T23:20:46.906Z,16.10
2017-11-13T23:23:14.377Z,17.03
2017-11-13T23:25:41.869Z,16.27
2017-11-13T23:28:09.358Z,16.47
2017-11-13T23:30:37.630Z,17.48
2017-11-13T23:33:05.118Z,15.17
2017-11-13T23:35:32.606Z,14.20
2017-11-13T23:38:00.094Z,15.40
2017-11-13T23:40:27.609Z,14.83
2017-11-13T23:42:55.091Z,15.67
2017-11-13T23:45:22.574Z,16.20
2017-11-13T23:47:50.071Z,15.87
2017-11-13T23:50:17.558Z,16.23
2017-11-13T23:52:45.066Z,12.05
2017-11-13T23:55:13.301Z,11.40
2017-11-13T23:57:40.802Z,12.33
